Time;durP1;ratioP1;P1;durP2;ratioP2;P2;SDS_P1;SDS_P2;PMS_P1;PMS_P2;Temp;Humidity;BMP_temperature;BMP_pressure;BME280_temperature;BME280_humidity;BME280_pressure;Samples;Min_cycle;Max_cycle;Signal;HPM_P1;HPM_P2
2022/04/01 05:34:49;;;;;;;15.00;10.90;;;0.90;92.20;;;;;;5001844;28;20489;-75
2022/04/01 05:37:16;;;;;;;14.23;11.00;;;0.90;92.20;;;;;;5003785;28;20115;-74
2022/04/01 05:39:47;;;;;;;14.27;11.27;;;0.90;92.20;;;;;;5011311;28;20473;-74
2022/04/01 05:42:14;;;;;;;15.60;11.05;;;1.00;92.10;;;;;;5012961;28;20042;-76
2022/04/01 05:44:42;;;;;;;15.85;11.45;;;1.00;92.20;;;;;;5011042;28;20040;-74
2022/04/01 05:47:08;;;;;;;16.50;12.32;;;0.90;92.10;;;;;;5008949;28;20128;-76
2022/04/01 05:49:40;;;;;;;15.25;12.43;;;0.90;92.30;;;;;;5011030;28;20025;-76
2022/04/01 05:52:08;;;;;;;14.95;11.75;;;0.90;92.30;;;;;;5009072;28;20165;-76
2022/04/01 05:54:34;;;;;;;16.73;12.32;;;1.00;92.30;;;;;;5005169;28;20041;-77
2022/04/01 05:57:02;;;;;;;16.30;13.27;;;1.00;92.40;;;;;;5012042;28;20033;-76
2022/04/01 05:59:28;;;;;;;15.93;12.50;;;1.00;92.10;;;;;;5021733;28;20188;-73
2022/04/01 06:02:19;;;;;;;14.27;11.63;;;1.00;92.00;;;;;;5033757;28;20116;-75
2022/04/01 06:05:04;;;;;;;17.00;12.15;;;1.00;92.00;;;;;;5034318;28;20046;-74
2022/04/01 06:07:50;;;;;;;16.67;12.05;;;1.10;92.10;;;;;;5008763;28;20042;-76
2022/04/01 06:10:37;;;;;;;14.93;11.35;;;1.10;91.90;;;;;;5012629;28;20033;-76
2022/04/01 06:13:27;;;;;;;15.18;11.20;;;1.10;91.70;;;;;;5006103;28;20048;-74
2022/04/01 06:15:58;;;;;;;15.55;11.70;;;1.00;91.50;;;;;;5006682;28;20064;-75
2022/04/01 06:18:53;;;;;;;15.02;11.25;;;1.10;91.50;;;;;;5013266;28;20037;-73
2022/04/01 06:21:26;;;;;;;18.50;13.15;;;1.10;91.60;;;;;;5015626;28;20940;-74
2022/04/01 06:24:08;;;;;;;18.23;11.25;;;1.10;91.60;;;;;;5008027;28;20123;-73
2022/04/01 06:26:40;;;;;;;15.95;11.93;;;1.00;91.70;;;;;;4992160;28;20068;-75
2022/04/01 06:29:14;;;;;;;16.30;12.23;;;1.10;91.70;;;;;;5003529;28;20128;-74
2022/04/01 06:31:48;;;;;;;14.70;11.27;;;1.10;91.80;;;;;;5006547;28;20096;-73
2022/04/01 06:34:33;;;;;;;16.33;12.18;;;1.10;91.60;;;;;;5007536;28;20041;-74
2022/04/01 06:37:04;;;;;;;14.13;10.98;;;1.10;91.50;;;;;;5005020;28;20671;-74
2022/04/01 06:39:40;;;;;;;15.32;11.40;;;1.10;91.10;;;;;;4995326;28;20029;-75
2022/04/01 06:42:09;;;;;;;14.13;11.05;;;1.10;90.90;;;;;;5007213;28;20045;-74
2022/04/01 06:44:34;;;;;;;13.30;9.77;;;1.10;90.70;;;;;;5015117;28;20037;-74
2022/04/01 06:47:00;;;;;;;15.20;11.50;;;1.20;90.00;;;;;;5019280;28;20064;-75
2022/04/01 06:49:26;;;;;;;14.88;10.52;;;1.20;89.80;;;;;;5011067;28;20035;-75
2022/04/01 06:51:51;;;;;;;12.70;9.60;;;1.20;89.80;;;;;;5016921;28;20049;-75
2022/04/01 06:54:17;;;;;;;14.25;10.13;;;1.20;89.50;;;;;;5013685;28;20657;-75
2022/04/01 06:56:43;;;;;;;14.20;10.35;;;1.20;89.30;;;;;;5020163;28;20037;-76
2022/04/01 06:59:08;;;;;;;11.18;8.98;;;1.20;89.10;;;;;;5015848;28;20049;-74
2022/04/01 07:01:34;;;;;;;12.35;9.73;;;1.20;88.80;;;;;;5019845;28;20804;-75
2022/04/01 07:04:00;;;;;;;12.55;9.23;;;1.30;89.10;;;;;;5019842;28;20072;-75
2022/04/01 07:06:26;;;;;;;14.02;9.90;;;1.20;88.60;;;;;;4993640;28;20112;-76
2022/04/01 07:08:51;;;;;;;13.00;10.50;;;1.20;88.80;;;;;;5009132;28;20041;-73
2022/04/01 07:11:17;;;;;;;13.93;10.43;;;1.30;89.00;;;;;;4988792;28;20139;-76
2022/04/01 07:13:43;;;;;;;11.60;9.32;;;1.30;89.00;;;;;;5004618;28;20124;-74
2022/04/01 07:16:10;;;;;;;14.18;10.45;;;1.30;88.70;;;;;;5020046;28;20044;-74
2022/04/01 07:18:37;;;;;;;14.10;9.95;;;1.30;88.60;;;;;;5019869;28;20137;-74
2022/04/01 07:21:03;;;;;;;15.40;10.48;;;1.40;88.50;;;;;;5019566;28;20037;-73
2022/04/01 07:23:30;;;;;;;13.38;9.80;;;1.40;88.60;;;;;;5019322;28;20124;-74
2022/04/01 07:25:56;;;;;;;16.27;11.05;;;1.40;88.80;;;;;;5020493;28;20061;-75
2022/04/01 07:28:23;;;;;;;22.27;10.35;;;1.50;88.90;;;;;;5014306;28;20853;-77
2022/04/01 07:30:50;;;;;;;13.35;10.15;;;1.40;88.80;;;;;;5010520;28;20064;-76
2022/04/01 07:33:17;;;;;;;12.75;9.20;;;1.50;88.60;;;;;;5006882;28;20160;-78
2022/04/01 07:35:47;;;;;;;12.93;9.40;;;1.50;88.30;;;;;;5006060;28;20057;-76
2022/04/01 07:38:14;;;;;;;14.38;9.82;;;1.40;88.10;;;;;;5009259;28;20033;-76
2022/04/01 07:40:40;;;;;;;14.43;9.85;;;1.40;88.40;;;;;;5010429;28;20026;-76
2022/04/01 07:43:05;;;;;;;14.05;10.13;;;1.40;88.50;;;;;;5009728;28;20061;-76
2022/04/01 07:45:35;;;;;;;13.23;9.07;;;1.50;88.50;;;;;;5008469;28;20128;-79
2022/04/01 07:48:02;;;;;;;11.90;8.48;;;1.50;88.40;;;;;;5007725;28;20021;-77
2022/04/01 07:50:29;;;;;;;14.13;10.38;;;1.40;88.30;;;;;;5014950;28;20025;-75
2022/04/01 07:52:55;;;;;;;12.35;8.77;;;1.50;88.60;;;;;;5020097;28;20061;-77
2022/04/01 07:55:22;;;;;;;15.27;10.25;;;1.50;88.30;;;;;;5021584;28;20476;-77
2022/04/01 07:57:49;;;;;;;13.18;9.30;;;1.50;88.50;;;;;;5014491;28;20045;-77
2022/04/01 08:00:17;;;;;;;12.90;9.52;;;1.50;88.50;;;;;;5016367;28;20047;-78
2022/04/01 08:02:44;;;;;;;14.23;10.25;;;1.50;88.10;;;;;;5016257;28;20037;-78
2022/04/01 08:05:11;;;;;;;13.65;9.35;;;1.40;88.30;;;;;;5012465;28;20042;-78
2022/04/01 08:07:37;;;;;;;12.27;8.88;;;1.40;88.30;;;;;;4999838;28;20822;-76
2022/04/01 08:10:04;;;;;;;15.30;9.20;;;1.50;88.40;;;;;;5017150;28;20048;-76
2022/04/01 08:12:34;;;;;;;12.57;9.57;;;1.50;88.10;;;;;;5015711;28;20033;-80
2022/04/01 08:15:01;;;;;;;14.95;9.90;;;1.50;87.70;;;;;;5018276;28;20430;-78
2022/04/01 08:17:27;;;;;;;12.30;8.70;;;1.50;87.70;;;;;;5017716;28;20439;-79
2022/04/01 08:19:53;;;;;;;14.30;8.75;;;1.50;87.60;;;;;;5018321;28;20095;-77
2022/04/01 08:22:19;;;;;;;11.98;7.82;;;1.50;87.60;;;;;;5015338;28;20045;-76
2022/04/01 08:24:45;;;;;;;10.48;7.45;;;1.40;87.30;;;;;;5015432;28;20041;-77
2022/04/01 08:27:14;;;;;;;11.10;8.38;;;1.40;87.20;;;;;;5013865;28;20127;-78
2022/04/01 08:29:41;;;;;;;11.73;7.75;;;1.50;87.50;;;;;;5017308;28;20042;-77
2022/04/01 08:32:07;;;;;;;11.02;7.93;;;1.50;87.50;;;;;;5018742;28;20092;-77
2022/04/01 08:34:33;;;;;;;12.07;7.18;;;1.50;87.70;;;;;;5020038;28;20049;-77
2022/04/01 08:36:59;;;;;;;12.73;8.00;;;1.50;87.60;;;;;;5019513;28;20509;-75
2022/04/01 08:39:25;;;;;;;10.88;8.18;;;1.60;87.70;;;;;;4998068;28;20388;-77
2022/04/01 08:41:51;;;;;;;10.95;7.60;;;1.60;87.90;;;;;;5017202;28;20037;-75
2022/04/01 08:44:17;;;;;;;11.82;7.80;;;1.60;88.20;;;;;;5000676;28;20125;-75
2022/04/01 08:46:43;;;;;;;10.07;7.32;;;1.60;87.90;;;;;;5018379;28;20055;-76
2022/04/01 08:49:09;;;;;;;10.65;7.10;;;1.60;88.00;;;;;;4999302;28;20810;-76
2022/04/01 08:51:35;;;;;;;10.90;7.20;;;1.60;87.80;;;;;;5013990;28;20037;-79
2022/04/01 08:54:02;;;;;;;10.85;7.63;;;1.60;88.20;;;;;;5019298;28;20095;-80
2022/04/01 08:56:28;;;;;;;10.55;7.07;;;1.60;88.10;;;;;;5018703;28;20084;-74
2022/04/01 08:58:54;;;;;;;10.95;7.97;;;1.60;87.90;;;;;;5017917;28;20033;-76
2022/04/01 09:01:20;;;;;;;11.35;7.63;;;1.70;88.10;;;;;;5015673;28;20026;-76
2022/04/01 09:03:46;;;;;;;11.57;7.95;;;1.80;88.10;;;;;;5014141;28;20033;-76
2022/04/01 09:06:12;;;;;;;11.95;6.90;;;1.80;87.30;;;;;;5016057;28;20233;-77
2022/04/01 09:08:40;;;;;;;11.55;7.10;;;1.80;86.80;;;;;;5006585;28;20038;-77
2022/04/01 09:11:17;;;;;;;11.63;8.10;;;1.70;86.80;;;;;;5011883;28;20034;-76
2022/04/01 09:13:43;;;;;;;15.18;7.07;;;1.90;87.00;;;;;;5010041;28;20042;-77
2022/04/01 09:16:21;;;;;;;10.93;7.82;;;1.90;86.50;;;;;;5009257;28;20056;-78
2022/04/01 09:18:47;;;;;;;11.88;7.28;;;2.00;86.60;;;;;;5005513;28;20038;-74
2022/04/01 09:21:14;;;;;;;10.85;7.43;;;2.00;86.10;;;;;;4988632;28;20073;-76
2022/04/01 09:23:47;;;;;;;12.02;7.55;;;2.00;85.40;;;;;;5009096;28;20587;-76
2022/04/01 09:26:12;;;;;;;12.50;6.93;;;2.10;85.70;;;;;;5008153;28;20041;-78
2022/04/01 09:28:40;;;;;;;11.65;7.43;;;2.10;85.20;;;;;;5019331;28;20096;-77
2022/04/01 09:31:10;;;;;;;9.82;6.15;;;2.10;84.70;;;;;;5019732;28;20076;-77
2022/04/01 09:33:42;;;;;;;14.10;6.18;;;2.20;83.40;;;;;;5015488;28;20128;-77
2022/04/01 09:36:10;;;;;;;8.95;5.68;;;2.20;82.50;;;;;;5020068;28;20038;-77
2022/04/01 09:38:36;;;;;;;8.95;5.68;;;2.30;82.10;;;;;;5014686;28;20099;-76
2022/04/01 09:41:08;;;;;;;10.18;5.78;;;2.40;82.20;;;;;;4999801;28;20045;-75
2022/04/01 09:43:41;;;;;;;11.32;4.88;;;2.60;81.70;;;;;;5020916;28;20045;-74
2022/04/01 09:46:22;;;;;;;8.82;4.85;;;2.50;79.80;;;;;;5016331;28;20087;-75
2022/04/01 09:48:48;;;;;;;10.02;5.30;;;2.40;79.50;;;;;;4999643;28;20036;-77
2022/04/01 09:51:14;;;;;;;8.43;5.00;;;2.60;80.30;;;;;;5019952;28;20032;-79
2022/04/01 09:53:49;;;;;;;9.02;4.97;;;2.60;79.10;;;;;;5017578;28;20033;-76
2022/04/01 09:56:15;;;;;;;7.93;4.15;;;2.70;77.80;;;;;;5013424;28;20093;-75
2022/04/01 09:58:42;;;;;;;8.40;4.70;;;2.90;78.60;;;;;;5012995;28;20201;-75
2022/04/01 10:01:09;;;;;;;7.93;4.55;;;3.10;78.20;;;;;;5012564;28;20029;-75
2022/04/01 10:03:35;;;;;;;9.30;3.97;;;3.20;77.50;;;;;;5015710;28;20038;-79
2022/04/01 10:06:02;;;;;;;8.38;4.60;;;3.10;76.10;;;;;;5008237;28;20056;-76
2022/04/01 10:08:30;;;;;;;7.07;4.75;;;3.10;76.90;;;;;;5015331;28;20720;-75
2022/04/01 10:10:56;;;;;;;7.78;4.25;;;3.10;76.90;;;;;;5013738;28;20033;-75
2022/04/01 10:13:29;;;;;;;8.32;4.07;;;3.20;77.10;;;;;;5015799;28;20370;-76
2022/04/01 10:15:58;;;;;;;6.43;3.80;;;3.20;76.50;;;;;;5016758;28;20045;-77
2022/04/01 10:18:25;;;;;;;8.68;4.30;;;3.20;75.60;;;;;;5011874;28;20033;-77
2022/04/01 10:20:54;;;;;;;9.30;3.70;;;3.30;76.10;;;;;;4997473;28;20037;-76
2022/04/01 10:23:23;;;;;;;7.85;3.63;;;3.20;75.30;;;;;;5020230;28;20043;-77
2022/04/01 10:25:59;;;;;;;8.70;3.78;;;3.20;75.00;;;;;;5019242;28;20045;-77
2022/04/01 10:28:26;;;;;;;7.45;3.30;;;3.10;75.40;;;;;;4995952;28;20828;-77
2022/04/01 10:30:57;;;;;;;6.53;3.20;;;3.00;74.20;;;;;;5010247;28;20029;-76
2022/04/01 10:33:38;;;;;;;5.50;3.40;;;3.00;75.00;;;;;;5008303;28;20190;-75
2022/04/01 10:36:22;;;;;;;7.90;3.47;;;3.00;76.20;;;;;;5011189;28;20820;-76
2022/04/01 10:38:49;;;;;;;7.00;3.78;;;3.00;77.40;;;;;;5010702;28;20038;-75
2022/04/01 10:41:15;;;;;;;6.65;3.60;;;3.00;77.90;;;;;;5014331;28;20486;-76
2022/04/01 10:43:45;;;;;;;6.82;3.28;;;2.90;77.80;;;;;;5018275;28;20507;-78
2022/04/01 10:46:18;;;;;;;6.97;3.83;;;2.80;77.40;;;;;;5003126;28;20049;-77
2022/04/01 10:52:04;;;;;;;8.15;3.63;;;2.80;77.80;;;;;;5013900;28;20488;-76
2022/04/01 10:54:31;;;;;;;8.30;3.50;;;2.90;77.80;;;;;;5018766;28;20057;-76
2022/04/01 10:57:05;;;;;;;7.60;3.42;;;3.00;77.70;;;;;;5020634;28;20046;-77
2022/04/01 10:59:50;;;;;;;7.82;3.60;;;3.00;77.10;;;;;;5019790;28;20040;-76
2022/04/01 11:02:19;;;;;;;;;;;2.90;76.50;;;;;;5017851;28;20037;-75
2022/04/01 11:04:47;;;;;;;6.75;3.55;;;3.00;76.70;;;;;;5011842;28;20020;-77
2022/04/01 11:07:30;;;;;;;7.13;3.20;;;3.10;76.80;;;;;;5015408;28;20053;-75
2022/04/01 11:10:01;;;;;;;8.35;3.97;;;3.20;76.10;;;;;;5008048;28;20116;-76
2022/04/01 11:12:31;;;;;;;9.40;4.00;;;3.20;75.90;;;;;;4991456;28;20042;-76
2022/04/01 11:15:00;;;;;;;9.50;3.42;;;3.40;76.80;;;;;;5009410;28;20037;-75
2022/04/01 11:17:27;;;;;;;6.93;3.25;;;3.40;74.40;;;;;;4990408;28;20042;-75
2022/04/01 11:20:12;;;;;;;7.13;2.95;;;3.40;73.80;;;;;;5005707;28;20034;-76
2022/04/01 11:22:54;;;;;;;6.53;3.20;;;3.70;74.00;;;;;;5011194;28;20064;-76
2022/04/01 11:25:25;;;;;;;6.35;3.17;;;3.90;74.10;;;;;;5016103;28;20049;-75
2022/04/01 11:28:08;;;;;;;5.72;3.10;;;4.10;73.80;;;;;;5034275;28;20025;-75
2022/04/01 11:30:40;;;;;;;8.15;3.33;;;3.90;73.00;;;;;;5045793;28;20058;-75
2022/04/01 11:33:10;;;;;;;6.47;3.20;;;3.80;74.00;;;;;;5014856;28;20173;-75
2022/04/01 11:35:41;;;;;;;6.70;3.72;;;3.70;73.80;;;;;;5018692;28;20041;-75
2022/04/01 11:38:19;;;;;;;6.47;3.50;;;3.70;74.20;;;;;;5016194;28;20101;-76
2022/04/01 11:40:50;;;;;;;8.07;3.85;;;3.60;74.50;;;;;;5017041;28;20167;-77
2022/04/01 11:43:18;;;;;;;6.50;3.22;;;3.60;74.90;;;;;;5002456;28;20558;-77
2022/04/01 11:45:47;;;;;;;7.30;3.53;;;3.50;75.50;;;;;;5018061;28;20049;-76
2022/04/01 11:48:18;;;;;;;7.07;3.83;;;3.50;75.40;;;;;;5020220;28;20041;-76
2022/04/01 11:50:49;;;;;;;7.22;3.28;;;3.80;76.50;;;;;;5011479;28;20116;-78
2022/04/01 11:53:22;;;;;;;6.38;2.97;;;4.10;75.70;;;;;;5005648;28;20586;-75
2022/04/01 11:55:48;;;;;;;7.05;3.25;;;4.10;74.80;;;;;;5004355;28;20046;-74
2022/04/01 11:58:14;;;;;;;6.82;3.17;;;4.10;74.70;;;;;;5008868;28;20121;-76
2022/04/01 12:00:40;;;;;;;8.75;4.18;;;4.10;73.00;;;;;;5009839;28;20449;-77
2022/04/01 12:03:08;;;;;;;6.57;3.33;;;4.00;72.50;;;;;;5024973;28;20021;-74
2022/04/01 12:05:34;;;;;;;10.30;3.53;;;4.10;72.30;;;;;;5036530;28;20052;-75
2022/04/01 12:10:53;;;;;;;6.70;3.58;;;4.20;73.20;;;;;;5003510;28;20108;-74
2022/04/01 12:13:20;;;;;;;7.97;3.47;;;4.20;71.80;;;;;;5010038;28;20397;-78
2022/04/01 12:15:48;;;;;;;5.80;3.10;;;4.20;71.80;;;;;;5023361;28;20531;-79
2022/04/01 12:18:19;;;;;;;11.27;4.45;;;4.00;72.30;;;;;;5017516;28;20033;-78
2022/04/01 12:20:47;;;;;;;12.27;5.75;;;4.10;73.30;;;;;;5000923;28;20485;-78
2022/04/01 12:23:14;;;;;;;10.38;4.53;;;4.00;72.30;;;;;;5028522;28;20033;-77
2022/04/01 12:25:41;;;;;;;8.55;3.80;;;4.00;70.50;;;;;;5015602;28;20049;-77
2022/04/01 12:28:12;;;;;;;8.88;3.83;;;4.10;72.10;;;;;;5010381;28;20039;-77
2022/04/01 12:30:42;;;;;;;10.18;3.92;;;4.20;72.00;;;;;;5010608;28;20333;-78
2022/04/01 12:33:09;;;;;;;7.20;4.05;;;4.20;72.20;;;;;;5002147;28;20099;-77
2022/04/01 12:35:55;;;;;;;8.98;3.55;;;4.10;71.10;;;;;;5019721;28;20064;-76
2022/04/01 12:38:22;;;;;;;8.80;4.20;;;4.10;71.40;;;;;;5024058;28;20036;-75
2022/04/01 12:41:00;;;;;;;7.88;3.58;;;4.10;72.00;;;;;;5020563;28;20034;-77
2022/04/01 12:43:45;;;;;;;8.10;4.05;;;4.10;71.00;;;;;;5015537;28;20135;-75
2022/04/01 12:46:11;;;;;;;7.72;3.58;;;4.10;71.60;;;;;;5016677;28;20148;-78
2022/04/01 12:48:51;;;;;;;6.22;3.10;;;4.10;72.10;;;;;;5018480;28;20055;-76
2022/04/01 12:51:22;;;;;;;6.00;2.80;;;4.10;70.60;;;;;;5006541;28;20088;-77
2022/04/01 12:54:22;;;;;;;6.85;3.15;;;4.30;70.10;;;;;;4986659;28;20049;-76
2022/04/01 12:56:50;;;;;;;7.43;3.53;;;4.60;69.20;;;;;;5012534;28;20056;-76
2022/04/01 12:59:18;;;;;;;6.70;3.30;;;4.80;69.10;;;;;;5011846;28;20037;-75
2022/04/01 13:01:46;;;;;;;6.57;3.40;;;4.90;67.30;;;;;;5013460;28;20516;-75
2022/04/01 13:04:20;;;;;;;6.95;3.50;;;5.00;67.70;;;;;;5017209;28;20423;-76
2022/04/01 13:07:06;;;;;;;6.03;3.03;;;4.70;67.40;;;;;;5007641;28;20048;-77
2022/04/01 13:09:32;;;;;;;5.18;3.03;;;4.70;65.80;;;;;;5012772;28;20496;-77
2022/04/01 13:12:00;;;;;;;6.28;3.38;;;4.70;66.80;;;;;;5016242;28;20038;-76
2022/04/01 13:14:29;;;;;;;5.97;3.13;;;4.80;67.00;;;;;;5016775;28;20030;-75
2022/04/01 13:16:57;;;;;;;7.22;3.20;;;4.80;66.40;;;;;;4999232;28;20034;-75
2022/04/01 13:19:26;;;;;;;6.15;3.22;;;4.70;65.50;;;;;;5002738;28;20034;-82
2022/04/01 13:21:54;;;;;;;7.80;3.08;;;4.60;64.90;;;;;;5022406;28;20124;-75
2022/04/01 13:24:23;;;;;;;7.53;3.13;;;4.50;66.30;;;;;;5015955;28;20092;-81
2022/04/01 13:26:50;;;;;;;6.03;3.30;;;4.50;65.30;;;;;;5014721;28;20052;-77
2022/04/01 13:29:15;;;;;;;5.93;3.33;;;4.50;66.60;;;;;;5013178;28;20055;-80
2022/04/01 13:31:41;;;;;;;6.70;3.42;;;4.50;66.90;;;;;;5000549;28;20045;-75
2022/04/01 13:34:07;;;;;;;7.32;3.25;;;4.50;66.60;;;;;;5018933;28;20030;-76
2022/04/01 13:36:34;;;;;;;5.10;3.03;;;4.40;66.50;;;;;;5007110;28;20096;-76
2022/04/01 13:39:00;;;;;;;5.50;3.20;;;4.30;65.70;;;;;;5016213;28;20453;-78
2022/04/01 13:41:26;;;;;;;8.27;3.75;;;4.30;66.50;;;;;;5017436;28;20405;-76
2022/04/01 13:43:52;;;;;;;5.82;3.30;;;4.40;67.00;;;;;;5016379;28;20038;-78
2022/04/01 13:46:19;;;;;;;6.45;3.28;;;4.50;66.80;;;;;;5005103;28;20370;-80
2022/04/01 13:48:45;;;;;;;7.45;3.75;;;4.60;67.10;;;;;;5016269;28;20207;-78
2022/04/01 13:51:11;;;;;;;8.85;4.78;;;4.60;66.90;;;;;;5007965;28;20369;-76
2022/04/01 13:53:37;;;;;;;7.90;3.40;;;4.70;67.70;;;;;;5022401;28;20032;-77
2022/04/01 13:56:03;;;;;;;7.55;3.72;;;4.60;67.10;;;;;;5023682;28;20041;-77
2022/04/01 13:58:29;;;;;;;7.95;3.30;;;4.60;66.70;;;;;;5010945;28;20017;-78
2022/04/01 14:00:55;;;;;;;7.18;4.05;;;4.60;66.40;;;;;;5011310;28;20054;-76
2022/04/01 14:03:20;;;;;;;6.97;3.63;;;4.60;66.40;;;;;;5012565;28;20038;-77
2022/04/01 14:05:46;;;;;;;8.80;3.72;;;4.50;67.00;;;;;;5018828;28;20038;-77
2022/04/01 14:08:15;;;;;;;6.32;3.55;;;4.40;66.90;;;;;;5017579;28;20034;-77
2022/04/01 14:10:41;;;;;;;6.38;3.70;;;4.30;67.40;;;;;;5026130;28;20033;-77
2022/04/01 14:13:08;;;;;;;7.45;4.38;;;4.30;68.40;;;;;;5018747;28;20436;-77
2022/04/01 14:15:34;;;;;;;7.05;4.25;;;4.30;69.60;;;;;;5020511;28;20041;-78
2022/04/01 14:18:01;;;;;;;7.97;4.00;;;4.30;72.00;;;;;;5020350;28;20084;-77
2022/04/01 14:20:29;;;;;;;7.22;4.18;;;4.30;72.50;;;;;;5017700;28;20136;-78
2022/04/01 14:22:55;;;;;;;8.18;4.60;;;4.30;72.60;;;;;;5017528;28;20505;-76
2022/04/01 14:25:21;;;;;;;7.28;4.35;;;4.30;72.50;;;;;;5017621;28;20504;-76
2022/04/01 14:27:46;;;;;;;6.47;4.18;;;4.30;71.90;;;;;;5017964;28;20037;-76
2022/04/01 14:30:18;;;;;;;9.30;4.20;;;4.40;72.40;;;;;;5015721;28;20515;-76
2022/04/01 14:32:48;;;;;;;8.45;4.40;;;4.60;70.70;;;;;;5021692;28;20136;-79
2022/04/01 14:35:14;;;;;;;7.10;4.07;;;4.60;70.00;;;;;;5020649;28;20065;-78
2022/04/01 14:37:40;;;;;;;7.57;4.18;;;4.60;69.80;;;;;;5025380;28;20100;-78
2022/04/01 14:40:07;;;;;;;7.95;4.60;;;4.60;68.20;;;;;;5026614;28;20029;-78
2022/04/01 14:42:33;;;;;;;8.57;4.75;;;4.60;68.20;;;;;;5015533;28;20467;-78
2022/04/01 14:45:04;;;;;;;9.13;4.82;;;4.60;67.60;;;;;;5018307;28;20037;-78
2022/04/01 14:47:30;;;;;;;7.70;4.30;;;4.60;66.00;;;;;;5016648;28;20041;-79
2022/04/01 14:49:57;;;;;;;7.93;3.97;;;4.50;67.20;;;;;;5021723;28;20037;-78
2022/04/01 14:52:23;;;;;;;7.13;4.57;;;4.40;67.30;;;;;;5003224;28;20116;-78
2022/04/01 14:54:50;;;;;;;8.93;6.03;;;4.30;69.90;;;;;;5029298;28;20041;-76
2022/04/01 14:57:18;;;;;;;10.18;5.78;;;4.10;73.00;;;;;;5015881;28;20056;-77
2022/04/01 14:59:44;;;;;;;8.43;5.75;;;4.00;75.10;;;;;;5018464;28;20042;-76
2022/04/01 15:02:10;;;;;;;9.50;6.75;;;3.90;75.70;;;;;;5017676;28;20046;-79
2022/04/01 15:04:37;;;;;;;10.55;6.80;;;4.00;75.50;;;;;;5000276;28;20051;-79
2022/04/01 15:07:03;;;;;;;10.40;6.55;;;4.00;75.70;;;;;;5031532;28;20034;-78
2022/04/01 15:09:33;;;;;;;9.55;6.07;;;4.00;75.10;;;;;;5026782;28;20469;-77
2022/04/01 15:12:02;;;;;;;9.25;5.57;;;4.10;74.60;;;;;;5022171;28;20105;-77
2022/04/01 15:14:28;;;;;;;8.02;5.80;;;4.10;74.40;;;;;;5021577;28;20029;-77
2022/04/01 15:16:54;;;;;;;11.50;6.10;;;4.10;74.00;;;;;;5025839;28;20516;-77
2022/04/01 15:19:20;;;;;;;10.00;6.50;;;4.10;72.70;;;;;;5022150;28;20159;-77
2022/04/01 15:21:46;;;;;;;11.32;7.03;;;4.10;72.70;;;;;;5021143;28;20058;-76
2022/04/01 15:24:12;;;;;;;10.32;5.05;;;4.10;72.10;;;;;;5024364;28;20086;-76
2022/04/01 15:26:38;;;;;;;9.02;5.50;;;4.10;70.40;;;;;;5021038;28;20139;-76
2022/04/01 15:29:04;;;;;;;9.13;6.03;;;4.10;71.80;;;;;;5027966;28;20154;-78
2022/04/01 15:31:30;;;;;;;9.32;6.05;;;4.20;71.80;;;;;;5020855;28;20044;-78
2022/04/01 15:33:56;;;;;;;9.77;5.57;;;4.40;72.40;;;;;;5007041;28;20033;-76
2022/04/01 15:36:26;;;;;;;10.52;5.88;;;4.40;71.20;;;;;;5019953;28;20141;-76
2022/04/01 15:38:54;;;;;;;8.25;5.30;;;4.50;72.10;;;;;;5006716;28;20061;-78
2022/04/01 15:41:20;;;;;;;8.30;5.53;;;4.50;71.80;;;;;;5021429;28;20064;-80
2022/04/01 15:43:47;;;;;;;7.78;5.60;;;4.60;71.30;;;;;;5021467;28;20060;-77
2022/04/01 15:46:15;;;;;;;8.32;5.40;;;4.50;70.30;;;;;;5033962;28;20114;-77
2022/04/01 15:48:47;;;;;;;8.05;5.30;;;4.60;70.70;;;;;;5025453;28;20479;-76
2022/04/01 15:51:12;;;;;;;9.52;6.30;;;4.60;68.40;;;;;;5014706;28;20065;-77
2022/04/01 15:53:40;;;;;;;9.23;5.60;;;4.60;68.70;;;;;;5023974;28;20112;-77
2022/04/01 15:56:07;;;;;;;9.23;6.15;;;4.60;68.50;;;;;;5028476;28;20046;-77
2022/04/01 15:58:32;;;;;;;9.73;5.63;;;4.60;67.80;;;;;;5000413;28;20454;-76
2022/04/01 16:01:02;;;;;;;8.05;5.50;;;4.60;68.90;;;;;;5020844;28;20144;-78
2022/04/01 16:03:32;;;;;;;8.10;5.03;;;4.40;69.30;;;;;;5021652;28;20021;-78
2022/04/01 16:05:58;;;;;;;7.85;5.40;;;4.50;69.60;;;;;;5004131;28;20095;-76
2022/04/01 16:08:25;;;;;;;7.65;4.78;;;4.40;68.70;;;;;;5022519;28;20034;-77
2022/04/01 16:10:52;;;;;;;8.48;5.20;;;4.40;68.60;;;;;;5020044;28;20030;-77
2022/04/01 16:13:28;;;;;;;7.80;5.22;;;4.50;69.00;;;;;;5000092;28;20523;-79
2022/04/01 16:15:54;;;;;;;7.63;4.70;;;4.60;69.30;;;;;;5022239;28;20052;-77
2022/04/01 16:18:20;;;;;;;10.35;5.03;;;4.60;69.10;;;;;;5023348;28;20044;-78
2022/04/01 16:20:46;;;;;;;7.30;4.25;;;4.60;68.50;;;;;;5024434;28;20041;-76
2022/04/01 16:23:15;;;;;;;7.35;4.57;;;4.60;68.90;;;;;;5019422;28;20049;-79
2022/04/01 16:25:41;;;;;;;7.38;4.50;;;4.70;69.40;;;;;;5026172;28;20053;-74
2022/04/01 16:28:07;;;;;;;7.82;4.65;;;4.70;69.40;;;;;;5038511;28;20105;-77
2022/04/01 16:30:33;;;;;;;11.07;3.97;;;4.60;67.70;;;;;;5021449;28;20060;-76
2022/04/01 16:33:00;;;;;;;8.82;4.43;;;4.50;67.80;;;;;;5039756;28;20029;-77
2022/04/01 16:35:26;;;;;;;6.20;3.72;;;4.60;68.20;;;;;;5011790;28;20099;-77
2022/04/01 16:37:52;;;;;;;9.15;4.70;;;4.50;67.70;;;;;;5011979;28;20417;-74
2022/04/01 16:40:18;;;;;;;6.40;3.80;;;4.40;68.70;;;;;;5009905;28;20535;-75
2022/04/01 16:42:44;;;;;;;6.15;3.80;;;4.40;68.30;;;;;;5002899;28;20063;-76
2022/04/01 16:45:09;;;;;;;8.38;3.92;;;4.30;68.30;;;;;;5003912;28;20151;-75
2022/04/01 16:47:35;;;;;;;7.05;4.43;;;4.30;68.70;;;;;;5003581;28;20767;-76
2022/04/01 16:50:02;;;;;;;8.63;4.97;;;4.30;69.10;;;;;;5004014;28;20501;-76
2022/04/01 16:52:28;;;;;;;8.43;4.97;;;4.40;70.70;;;;;;5006029;28;20509;-75
2022/04/01 16:54:54;;;;;;;8.60;4.93;;;4.30;72.20;;;;;;5004121;28;20050;-76
2022/04/01 16:57:19;;;;;;;7.95;5.20;;;4.20;73.30;;;;;;5003756;28;20066;-77
2022/04/01 16:59:45;;;;;;;10.25;5.05;;;4.20;73.80;;;;;;5003418;28;20034;-76
2022/04/01 17:02:11;;;;;;;8.95;5.18;;;4.10;74.10;;;;;;5004360;28;20041;-77
2022/04/01 17:04:38;;;;;;;8.98;5.22;;;4.10;73.90;;;;;;5003329;28;20037;-76
2022/04/01 17:12:41;;;;;;;8.43;5.15;;;4.00;72.40;;;;;;5004842;28;20087;-77
2022/04/01 17:15:15;;;;;;;8.20;4.43;;;4.10;72.20;;;;;;5005092;28;20045;-78
2022/04/01 17:17:41;;;;;;;7.95;5.13;;;4.10;71.70;;;;;;5004099;28;20033;-77
2022/04/01 17:20:13;;;;;;;8.38;4.80;;;4.10;71.60;;;;;;5005197;28;20060;-77
2022/04/01 17:22:39;;;;;;;9.20;5.72;;;4.10;71.70;;;;;;5005801;28;20045;-76
2022/04/01 17:25:10;;;;;;;8.43;5.28;;;4.10;71.60;;;;;;5003879;28;20037;-76
2022/04/01 17:27:37;;;;;;;10.07;5.13;;;4.10;71.60;;;;;;5004706;28;20036;-75
2022/04/01 17:30:05;;;;;;;9.45;5.15;;;4.20;71.60;;;;;;5003916;28;20123;-75
2022/04/01 17:32:36;;;;;;;8.75;4.80;;;4.20;71.40;;;;;;5003412;28;20026;-76
2022/04/01 17:35:12;;;;;;;9.23;5.00;;;4.20;71.00;;;;;;5011235;28;20045;-76
2022/04/01 17:37:40;;;;;;;9.88;5.38;;;4.20;71.10;;;;;;5008461;28;20479;-74
2022/04/01 17:40:08;;;;;;;9.30;5.32;;;4.20;71.70;;;;;;5005870;28;20088;-77
2022/04/01 17:42:34;;;;;;;10.25;5.97;;;4.20;72.00;;;;;;5012297;28;20112;-78
2022/04/01 17:45:01;;;;;;;10.73;6.43;;;4.30;72.30;;;;;;4994512;28;20033;-75
2022/04/01 17:47:27;;;;;;;9.70;5.90;;;4.20;72.30;;;;;;5011975;28;20129;-76
2022/04/01 17:49:53;;;;;;;10.32;6.10;;;4.20;72.50;;;;;;5010478;28;20033;-74
2022/04/01 17:52:24;;;;;;;10.73;6.20;;;4.20;72.80;;;;;;5008456;28;20388;-75
2022/04/01 17:54:52;;;;;;;12.15;6.53;;;4.20;72.60;;;;;;5004333;28;20125;-77
2022/04/01 17:57:20;;;;;;;11.55;6.50;;;4.20;72.70;;;;;;5009153;28;20423;-76
2022/04/01 18:00:17;;;;;;;10.52;5.88;;;4.20;72.80;;;;;;5011616;28;20590;-76
2022/04/01 18:02:45;;;;;;;14.18;7.38;;;4.20;72.30;;;;;;5007551;28;20042;-76
2022/04/01 18:05:12;;;;;;;12.63;6.50;;;4.20;72.30;;;;;;5010402;28;20311;-76
2022/04/01 18:07:59;;;;;;;12.00;5.78;;;4.20;72.20;;;;;;5004267;28;20493;-76
2022/04/01 18:10:26;;;;;;;12.90;5.97;;;4.20;70.50;;;;;;5002312;28;20040;-76
2022/04/01 18:12:51;;;;;;;11.00;4.38;;;4.20;67.90;;;;;;5007494;28;20033;-77
2022/04/01 18:15:18;;;;;;;13.40;5.82;;;4.30;67.40;;;;;;5004361;28;20087;-77
2022/04/01 18:17:44;;;;;;;7.75;3.72;;;4.40;67.80;;;;;;5007778;28;20465;-77
2022/04/01 18:20:11;;;;;;;9.10;4.05;;;4.40;65.90;;;;;;5013845;28;20029;-76
2022/04/01 18:22:37;;;;;;;10.40;4.15;;;4.40;66.10;;;;;;5011924;28;20080;-76
2022/04/01 18:25:10;;;;;;;9.30;5.13;;;4.40;65.70;;;;;;5017140;28;20590;-77
2022/04/01 18:27:56;;;;;;;8.75;3.80;;;4.50;66.00;;;;;;5022080;28;20029;-78
2022/04/01 18:30:24;;;;;;;7.20;4.10;;;4.40;66.20;;;;;;5018988;28;20045;-78
2022/04/01 18:32:55;;;;;;;7.57;4.03;;;4.40;66.10;;;;;;5013784;28;20069;-78
2022/04/01 18:35:33;;;;;;;8.50;4.53;;;4.40;66.60;;;;;;4996323;28;21215;-78
2022/04/01 18:38:01;;;;;;;9.27;4.28;;;4.40;66.20;;;;;;4994672;28;20049;-78
2022/04/01 18:40:28;;;;;;;9.90;4.43;;;4.40;65.30;;;;;;4987309;28;20692;-79
2022/04/01 18:42:56;;;;;;;8.10;3.70;;;4.40;64.90;;;;;;5014426;28;20534;-79
2022/04/01 18:45:23;;;;;;;6.50;3.38;;;4.40;64.20;;;;;;5014719;28;20068;-75
2022/04/01 18:47:49;;;;;;;9.80;3.95;;;4.50;62.80;;;;;;5007647;28;20115;-73